Time;durP1;ratioP1;P1;durP2;ratioP2;P2;SDS_P1;SDS_P2;PMS_P1;PMS_P2;Temp;Humidity;BMP_temperature;BMP_pressure;BME280_temperature;BME280_humidity;BME280_pressure;Samples;Min_cycle;Max_cycle;Signal;HPM_P1;HPM_P2
2022/06/16 00:01:58;;;;;;;2.95;1.30;;;13.60;99.90;;;;;;5037063;28;20021;-46
2022/06/16 00:04:24;;;;;;;2.40;1.33;;;13.50;99.90;;;;;;5039996;28;20483;-47
2022/06/16 00:06:50;;;;;;;2.28;1.40;;;13.50;99.90;;;;;;5039594;28;20033;-46
2022/06/16 00:09:16;;;;;;;6.82;1.77;;;13.40;99.90;;;;;;5041464;28;20024;-47
2022/06/16 00:11:42;;;;;;;2.83;2.00;;;13.30;99.90;;;;;;5041746;28;20029;-46
2022/06/16 00:14:08;;;;;;;2.15;1.60;;;13.30;99.90;;;;;;5038293;28;20521;-47
2022/06/16 00:16:33;;;;;;;3.13;1.38;;;13.30;99.90;;;;;;5040993;28;20022;-50
2022/06/16 00:18:59;;;;;;;4.60;1.73;;;13.30;99.90;;;;;;5039202;28;20014;-47
2022/06/16 00:21:25;;;;;;;2.17;1.13;;;13.30;99.90;;;;;;5040573;28;20498;-46
2022/06/16 00:23:50;;;;;;;2.53;1.40;;;13.30;99.90;;;;;;5039573;28;20025;-47
2022/06/16 00:26:22;;;;;;;4.03;1.98;;;13.20;99.90;;;;;;5041064;28;20096;-48
2022/06/16 00:28:48;;;;;;;3.17;2.00;;;13.20;99.90;;;;;;5040607;28;20079;-47
2022/06/16 00:31:17;;;;;;;1.20;1.10;;;13.20;99.90;;;;;;5030880;28;20033;-47
2022/06/16 00:33:44;;;;;;;6.00;2.33;;;13.10;99.90;;;;;;5032453;28;20017;-48
2022/06/16 00:36:10;;;;;;;2.65;1.67;;;13.10;99.90;;;;;;5043558;28;20336;-46
2022/06/16 00:38:36;;;;;;;4.63;1.88;;;13.10;99.90;;;;;;5048182;28;20033;-48
2022/06/16 00:41:02;;;;;;;3.10;1.90;;;13.10;99.90;;;;;;5041109;28;20078;-47
2022/06/16 00:43:28;;;;;;;2.97;1.75;;;13.10;99.90;;;;;;5046959;28;20025;-47
2022/06/16 00:46:00;;;;;;;3.78;1.60;;;13.10;99.90;;;;;;5048242;28;20037;-46
2022/06/16 00:48:38;;;;;;;4.72;2.10;;;13.00;99.90;;;;;;5040739;28;20082;-48
2022/06/16 00:51:19;;;;;;;4.15;1.83;;;13.00;99.90;;;;;;5045847;28;20071;-47
2022/06/16 00:53:46;;;;;;;2.70;2.42;;;13.00;99.90;;;;;;5040556;28;20079;-46
2022/06/16 00:56:16;;;;;;;1.77;1.50;;;12.90;99.90;;;;;;5045633;28;20074;-46
2022/06/16 00:58:45;;;;;;;2.17;1.80;;;12.90;99.90;;;;;;5043549;28;20033;-49
2022/06/16 01:01:13;;;;;;;6.95;2.10;;;12.90;99.90;;;;;;5049887;28;20475;-48
2022/06/16 01:06:26;;;;;;;4.68;1.85;;;12.90;99.90;;;;;;5033467;28;20055;-49
2022/06/16 01:09:02;;;;;;;3.92;1.83;;;12.80;99.90;;;;;;5047173;28;20009;-51
2022/06/16 01:14:40;;;;;;;3.42;1.77;;;12.90;99.90;;;;;;5042025;28;19904;-50
2022/06/16 01:17:17;;;;;;;2.40;2.00;;;12.80;99.90;;;;;;5033032;28;20017;-47
2022/06/16 01:20:08;;;;;;;4.63;2.22;;;12.90;99.90;;;;;;5041611;28;20060;-50
2022/06/16 01:22:43;;;;;;;5.25;1.90;;;12.90;99.90;;;;;;5040890;28;20071;-51
2022/06/16 01:25:24;;;;;;;2.38;1.73;;;12.80;99.90;;;;;;5042127;28;20020;-44
2022/06/16 01:28:05;;;;;;;3.40;1.83;;;12.80;99.90;;;;;;5050356;28;20021;-46
2022/06/16 01:30:45;;;;;;;2.00;1.40;;;12.80;99.90;;;;;;5047153;28;20423;-49
2022/06/16 01:33:26;;;;;;;1.63;1.52;;;12.70;99.90;;;;;;5048402;28;20053;-48
2022/06/16 01:36:04;;;;;;;3.83;1.63;;;12.80;99.90;;;;;;5050596;28;20494;-47
2022/06/16 01:38:46;;;;;;;3.05;1.50;;;12.80;99.90;;;;;;5048625;28;20416;-47
2022/06/16 01:41:27;;;;;;;3.10;1.90;;;12.80;99.90;;;;;;5049014;28;20056;-46
2022/06/16 01:44:03;;;;;;;4.82;1.42;;;12.80;99.90;;;;;;5043830;28;20108;-49
2022/06/16 01:46:32;;;;;;;3.75;1.80;;;12.70;99.90;;;;;;5052147;28;20163;-48
2022/06/16 01:49:02;;;;;;;7.30;2.03;;;12.70;99.90;;;;;;5044732;28;20079;-47
2022/06/16 01:51:30;;;;;;;1.92;1.73;;;12.70;99.90;;;;;;5044309;28;20017;-48
2022/06/16 01:54:14;;;;;;;2.78;1.90;;;12.60;99.90;;;;;;5047179;28;20070;-46
2022/06/16 01:56:49;;;;;;;2.70;1.60;;;12.70;99.90;;;;;;5050041;28;20021;-46
2022/06/16 01:59:19;;;;;;;5.45;2.05;;;12.70;99.90;;;;;;5035887;28;20036;-46
2022/06/16 02:01:48;;;;;;;1.83;1.65;;;12.70;99.90;;;;;;5048920;28;20021;-46
2022/06/16 02:04:19;;;;;;;1.70;1.60;;;12.70;99.90;;;;;;5050993;28;20017;-49
2022/06/16 02:06:51;;;;;;;2.65;1.63;;;12.70;99.90;;;;;;5048189;28;20025;-46
2022/06/16 02:09:25;;;;;;;2.38;1.90;;;12.60;99.90;;;;;;5049417;28;20103;-46
2022/06/16 02:11:55;;;;;;;4.38;2.33;;;12.60;99.90;;;;;;5046419;28;20558;-47
2022/06/16 02:14:34;;;;;;;3.85;1.85;;;12.60;99.90;;;;;;5050247;28;20051;-46
2022/06/16 02:17:01;;;;;;;3.50;2.35;;;12.60;99.90;;;;;;5044762;28;20048;-48
2022/06/16 02:19:27;;;;;;;3.17;1.98;;;12.50;99.90;;;;;;5048440;28;20090;-46
2022/06/16 02:21:54;;;;;;;4.45;2.45;;;12.50;99.90;;;;;;5050053;28;20021;-46
2022/06/16 02:24:24;;;;;;;5.05;2.22;;;12.50;99.90;;;;;;5044815;28;20025;-47
2022/06/16 02:26:52;;;;;;;3.78;1.95;;;12.50;99.90;;;;;;5047979;28;20031;-46
2022/06/16 02:29:38;;;;;;;3.38;2.00;;;12.40;99.90;;;;;;5043213;28;20107;-47
2022/06/16 02:32:18;;;;;;;2.95;2.10;;;12.40;99.90;;;;;;5050035;28;20033;-47
2022/06/16 02:35:00;;;;;;;5.82;2.00;;;12.40;99.90;;;;;;5047163;28;20398;-46
2022/06/16 02:37:34;;;;;;;2.80;2.35;;;12.40;99.90;;;;;;5038374;28;20090;-48
2022/06/16 02:40:21;;;;;;;4.20;2.30;;;12.40;99.90;;;;;;5046449;28;20021;-46
2022/06/16 02:42:56;;;;;;;3.95;2.50;;;12.40;99.90;;;;;;5048552;28;20028;-47
2022/06/16 02:45:42;;;;;;;4.72;2.65;;;12.40;99.90;;;;;;5036714;28;20116;-46
2022/06/16 02:48:15;;;;;;;4.45;2.58;;;12.40;99.90;;;;;;5047065;28;20033;-47
2022/06/16 02:51:05;;;;;;;2.58;2.03;;;12.40;99.90;;;;;;5051245;28;20025;-47
2022/06/16 02:54:10;;;;;;;2.72;2.30;;;12.40;99.90;;;;;;5044939;28;20024;-47
2022/06/16 02:57:01;;;;;;;5.35;2.30;;;12.40;99.90;;;;;;5036999;28;20060;-46
2022/06/16 02:59:35;;;;;;;4.05;2.13;;;12.40;99.90;;;;;;5031148;28;20032;-47
2022/06/16 03:02:04;;;;;;;6.13;2.03;;;12.40;99.90;;;;;;5050342;28;20032;-46
2022/06/16 03:04:38;;;;;;;2.85;2.13;;;12.40;99.90;;;;;;5047249;28;20056;-46
2022/06/16 03:07:04;;;;;;;4.35;2.70;;;12.40;99.90;;;;;;5049648;28;20017;-48
2022/06/16 03:09:30;;;;;;;5.32;2.75;;;12.40;99.90;;;;;;5046558;28;20597;-51
2022/06/16 03:11:56;;;;;;;2.78;2.20;;;12.30;99.90;;;;;;5048402;28;20102;-51
2022/06/16 03:14:22;;;;;;;3.47;2.30;;;12.40;99.90;;;;;;5045425;28;20033;-46
2022/06/16 03:16:48;;;;;;;6.45;2.72;;;12.30;99.90;;;;;;5048074;28;20029;-51
2022/06/16 03:19:13;;;;;;;3.95;2.40;;;12.40;99.90;;;;;;5050650;28;20025;-47
2022/06/16 03:21:39;;;;;;;6.43;2.83;;;12.40;99.90;;;;;;5045860;28;20070;-45
2022/06/16 03:24:05;;;;;;;2.55;2.13;;;12.30;99.90;;;;;;5049077;28;20025;-44
2022/06/16 03:26:30;;;;;;;3.55;2.28;;;12.40;99.90;;;;;;5044579;28;20104;-46
2022/06/16 03:28:56;;;;;;;3.67;2.42;;;12.40;99.90;;;;;;5049202;28;20113;-46
2022/06/16 03:31:22;;;;;;;2.40;2.20;;;12.40;99.90;;;;;;5046519;28;20032;-46
2022/06/16 03:33:47;;;;;;;4.53;2.70;;;12.50;99.90;;;;;;5050132;28;20017;-47
2022/06/16 03:36:13;;;;;;;4.05;2.40;;;12.50;99.90;;;;;;5044087;28;20022;-47
2022/06/16 03:41:05;;;;;;;2.83;2.63;;;12.50;99.90;;;;;;5042907;28;20017;-46
2022/06/16 03:43:30;;;;;;;4.43;2.78;;;12.50;99.90;;;;;;5049181;28;20025;-49
2022/06/16 03:45:56;;;;;;;3.65;2.55;;;12.50;99.90;;;;;;5048461;28;20032;-46
2022/06/16 03:48:22;;;;;;;2.47;2.28;;;12.60;99.90;;;;;;5046691;28;20021;-47
2022/06/16 03:50:47;;;;;;;2.58;2.28;;;12.60;99.90;;;;;;5048628;28;20056;-47
2022/06/16 03:53:13;;;;;;;3.97;2.70;;;12.60;99.90;;;;;;5043594;28;20021;-46
2022/06/16 03:55:38;;;;;;;4.53;2.38;;;12.70;99.90;;;;;;5050299;28;20032;-47
2022/06/16 03:58:04;;;;;;;4.45;2.50;;;12.70;99.90;;;;;;5042656;28;20127;-46
2022/06/16 04:00:30;;;;;;;4.85;2.55;;;12.70;99.90;;;;;;5049427;28;20558;-46
2022/06/16 04:05:41;;;;;;;6.18;2.97;;;12.70;99.90;;;;;;5039682;28;20028;-47
2022/06/16 04:08:07;;;;;;;3.10;2.65;;;12.70;99.90;;;;;;5047140;28;20426;-48
2022/06/16 04:10:33;;;;;;;5.38;2.70;;;12.80;99.90;;;;;;5044731;28;20032;-46
2022/06/16 04:12:59;;;;;;;6.10;2.40;;;12.70;99.90;;;;;;5047669;28;20024;-47
2022/06/16 04:15:25;;;;;;;2.83;2.45;;;12.70;99.90;;;;;;5368690;22;20076;-50
2022/06/16 04:17:50;;;;;;;3.70;2.80;;;12.70;99.90;;;;;;5008028;28;20104;-49
2022/06/16 04:20:16;;;;;;;3.33;2.30;;;12.80;99.90;;;;;;5002870;28;20026;-52
2022/06/16 04:22:42;;;;;;;5.05;2.65;;;12.80;99.90;;;;;;5006968;28;20033;-50
2022/06/16 04:25:12;;;;;;;3.85;2.78;;;12.80;99.90;;;;;;5009308;28;20477;-50
2022/06/16 04:27:41;;;;;;;5.78;2.75;;;12.80;99.90;;;;;;5009028;28;20121;-50
2022/06/16 04:30:08;;;;;;;4.43;2.20;;;12.80;99.90;;;;;;4999104;28;20069;-50
2022/06/16 04:32:34;;;;;;;5.53;2.70;;;12.80;99.90;;;;;;5003556;28;20026;-50
2022/06/16 04:34:59;;;;;;;3.95;2.55;;;12.80;99.90;;;;;;5003804;28;20113;-49
2022/06/16 04:37:25;;;;;;;3.10;2.83;;;12.80;99.90;;;;;;5007604;28;20048;-49
2022/06/16 04:39:51;;;;;;;4.05;2.65;;;12.90;99.90;;;;;;4998972;28;20094;-46
2022/06/16 04:42:16;;;;;;;3.90;3.03;;;12.90;99.90;;;;;;4999632;28;20017;-48
2022/06/16 04:44:43;;;;;;;3.92;2.85;;;12.90;99.90;;;;;;5008767;28;20494;-50
2022/06/16 04:47:08;;;;;;;4.70;2.55;;;12.90;99.90;;;;;;5005946;28;20030;-49
2022/06/16 04:49:35;;;;;;;5.50;2.45;;;12.90;99.90;;;;;;5008437;28;20053;-49
2022/06/16 04:52:01;;;;;;;4.15;2.85;;;12.90;99.90;;;;;;5004571;28;20057;-50
2022/06/16 04:54:26;;;;;;;3.28;2.47;;;13.00;99.90;;;;;;5007515;28;20037;-49
2022/06/16 04:56:52;;;;;;;5.20;3.03;;;13.00;99.90;;;;;;5002706;28;20037;-53
2022/06/16 04:59:18;;;;;;;7.22;2.97;;;13.00;99.90;;;;;;5005353;28;20082;-51
2022/06/16 05:01:44;;;;;;;8.43;3.03;;;13.00;99.90;;;;;;5008870;28;20026;-50
2022/06/16 05:04:10;;;;;;;4.13;2.80;;;13.10;99.90;;;;;;5005714;28;20049;-54
2022/06/16 05:06:35;;;;;;;3.13;2.83;;;13.10;99.90;;;;;;5008279;28;20033;-52
2022/06/16 05:09:02;;;;;;;7.95;2.97;;;13.10;99.90;;;;;;4998277;28;20026;-52
2022/06/16 05:11:27;;;;;;;3.85;3.55;;;13.10;99.90;;;;;;5005761;28;20538;-50
2022/06/16 05:13:53;;;;;;;5.10;3.10;;;13.10;99.90;;;;;;5003880;28;20049;-49
2022/06/16 05:16:18;;;;;;;4.30;3.45;;;13.20;99.90;;;;;;5005975;28;20038;-51
2022/06/16 05:18:44;;;;;;;4.88;2.75;;;13.20;99.90;;;;;;5008647;28;20080;-50
2022/06/16 05:21:12;;;;;;;5.50;2.90;;;13.20;99.90;;;;;;5005230;28;20029;-50
2022/06/16 05:23:38;;;;;;;4.68;3.00;;;13.20;99.90;;;;;;5007891;28;20053;-50
2022/06/16 05:26:05;;;;;;;4.97;3.08;;;13.20;99.90;;;;;;5006082;28;20088;-49
2022/06/16 05:28:32;;;;;;;6.93;3.13;;;13.30;99.90;;;;;;5008918;28;20556;-53
2022/06/16 05:30:58;;;;;;;3.85;2.75;;;13.30;99.90;;;;;;5004790;28;20522;-48
2022/06/16 05:33:24;;;;;;;5.32;2.97;;;13.30;99.90;;;;;;5007103;28;20076;-49
2022/06/16 05:36:01;;;;;;;4.78;2.88;;;13.40;99.90;;;;;;5004669;28;20034;-49
2022/06/16 05:38:27;;;;;;;3.50;2.75;;;13.40;99.90;;;;;;4994861;28;20061;-48
2022/06/16 05:41:01;;;;;;;5.85;2.80;;;13.40;99.90;;;;;;5003506;28;20125;-53
2022/06/16 05:43:28;;;;;;;4.22;2.70;;;13.50;99.90;;;;;;5006475;28;20555;-49
2022/06/16 05:45:54;;;;;;;6.30;3.15;;;13.50;99.90;;;;;;5011035;28;20052;-52
2022/06/16 05:48:20;;;;;;;5.55;2.88;;;13.70;99.90;;;;;;5007545;28;20391;-49
2022/06/16 05:50:46;;;;;;;5.88;3.53;;;13.70;99.90;;;;;;5012339;28;20018;-50
2022/06/16 05:53:13;;;;;;;9.18;3.17;;;13.90;99.90;;;;;;5005943;28;20031;-53
2022/06/16 05:55:38;;;;;;;7.47;3.38;;;14.00;99.90;;;;;;5012245;28;20112;-49
2022/06/16 05:58:04;;;;;;;10.82;2.80;;;14.00;99.90;;;;;;5005045;28;20429;-49
2022/06/16 06:00:31;;;;;;;5.20;3.05;;;14.10;99.90;;;;;;5010193;28;20026;-50
2022/06/16 06:02:58;;;;;;;7.03;2.88;;;14.20;99.90;;;;;;5010539;28;20017;-51
2022/06/16 06:05:26;;;;;;;5.72;3.00;;;14.20;99.90;;;;;;5008975;28;20030;-51
2022/06/16 06:16:28;;;;;;;5.43;2.63;;;14.90;99.90;;;;;;5007486;28;20044;-53
2022/06/16 06:18:54;;;;;;;5.97;2.95;;;15.00;99.90;;;;;;4988553;28;20026;-54
2022/06/16 06:21:58;;;;;;;5.80;2.60;;;15.10;99.90;;;;;;5008301;28;20532;-52
2022/06/16 06:24:06;;;;;;;4.13;2.67;;;15.30;99.90;;;;;;5010507;28;20034;-52
2022/06/16 06:26:32;;;;;;;7.47;2.50;;;15.60;99.90;;;;;;5011819;28;20080;-49
2022/06/16 06:28:57;;;;;;;3.50;2.30;;;15.70;99.90;;;;;;5010415;28;20041;-53
2022/06/16 06:31:23;;;;;;;4.15;1.83;;;15.90;99.90;;;;;;5008454;28;20397;-53
2022/06/16 06:33:48;;;;;;;3.80;1.77;;;16.00;99.90;;;;;;5011289;28;20112;-51
2022/06/16 06:36:14;;;;;;;1.70;1.60;;;16.10;99.90;;;;;;5005793;28;20076;-54
2022/06/16 06:38:39;;;;;;;3.10;1.50;;;16.20;99.90;;;;;;5011431;28;20084;-50
2022/06/16 06:41:06;;;;;;;3.90;1.65;;;16.30;99.90;;;;;;4999793;28;20050;-51
2022/06/16 06:43:31;;;;;;;5.05;1.65;;;16.60;99.90;;;;;;5010811;28;20488;-51
2022/06/16 06:45:57;;;;;;;6.05;1.73;;;16.80;99.90;;;;;;5008777;28;20037;-49
2022/06/16 06:48:22;;;;;;;1.52;1.27;;;16.80;99.90;;;;;;5006949;28;20026;-49
2022/06/16 06:50:48;;;;;;;3.20;1.52;;;17.00;99.90;;;;;;5009939;28;20547;-46
2022/06/16 06:53:14;;;;;;;4.00;1.45;;;17.10;99.90;;;;;;5005051;28;20049;-50
2022/06/16 06:55:43;;;;;;;2.30;1.20;;;17.20;99.90;;;;;;5011348;28;20480;-51
2022/06/16 06:58:16;;;;;;;2.05;1.27;;;17.40;99.90;;;;;;5003874;28;20416;-48
2022/06/16 07:00:42;;;;;;;4.05;1.05;;;17.70;99.90;;;;;;5011231;28;20397;-50
2022/06/16 07:03:08;;;;;;;1.73;1.27;;;17.90;99.90;;;;;;5008145;28;20033;-51
2022/06/16 07:05:34;;;;;;;2.65;1.63;;;18.10;99.90;;;;;;5009233;28;20046;-49
2022/06/16 07:07:59;;;;;;;3.33;1.55;;;18.30;99.90;;;;;;5009475;28;20033;-49
2022/06/16 07:10:25;;;;;;;2.50;1.02;;;18.50;99.90;;;;;;5006420;28;20030;-48
2022/06/16 07:12:51;;;;;;;3.20;1.60;;;18.70;99.90;;;;;;5010306;28;20030;-52
2022/06/16 07:15:17;;;;;;;3.53;1.20;;;18.80;99.90;;;;;;5003175;28;20034;-52
2022/06/16 07:17:43;;;;;;;2.03;1.10;;;19.00;99.90;;;;;;5010642;28;20076;-48
2022/06/16 07:20:13;;;;;;;2.38;1.05;;;19.20;99.90;;;;;;5007957;28;20460;-50
2022/06/16 07:22:38;;;;;;;2.70;1.15;;;19.10;99.90;;;;;;5009214;28;20101;-52
2022/06/16 07:25:04;;;;;;;2.50;1.17;;;19.10;99.90;;;;;;5010432;28;20038;-49
2022/06/16 07:27:30;;;;;;;1.52;1.17;;;18.80;99.90;;;;;;5010714;28;20487;-48
2022/06/16 07:29:56;;;;;;;3.65;1.15;;;18.70;99.90;;;;;;5007218;28;20025;-50
2022/06/16 07:32:22;;;;;;;2.67;1.38;;;18.70;99.90;;;;;;5009334;28;20022;-47
2022/06/16 07:34:48;;;;;;;1.52;0.90;;;18.40;99.90;;;;;;5006472;28;20408;-49
2022/06/16 07:37:14;;;;;;;3.22;1.02;;;18.10;99.90;;;;;;4986948;28;20026;-51
2022/06/16 07:39:40;;;;;;;5.95;1.65;;;18.00;99.90;;;;;;5003572;28;20537;-51
2022/06/16 07:42:08;;;;;;;4.18;0.93;;;18.00;99.90;;;;;;5006390;28;20018;-53
2022/06/16 07:44:34;;;;;;;4.35;1.05;;;18.20;99.90;;;;;;5010086;28;20494;-52
2022/06/16 07:46:59;;;;;;;1.98;1.38;;;18.50;99.90;;;;;;5007015;28;20105;-53
2022/06/16 07:49:27;;;;;;;2.80;1.13;;;18.80;99.90;;;;;;5009327;28;20033;-50
2022/06/16 07:51:55;;;;;;;1.30;0.80;;;18.90;99.90;;;;;;4998610;28;20041;-52
2022/06/16 07:54:20;;;;;;;2.70;0.70;;;19.10;99.90;;;;;;5008246;28;20029;-49
2022/06/16 07:56:47;;;;;;;1.30;0.88;;;19.30;99.90;;;;;;5003679;28;20511;-48
2022/06/16 07:59:13;;;;;;;2.55;0.85;;;19.40;99.90;;;;;;5007518;28;20428;-48
2022/06/16 08:01:39;;;;;;;1.48;0.57;;;19.80;99.40;;;;;;5009465;28;20373;-51
2022/06/16 08:04:05;;;;;;;1.75;1.17;;;20.10;96.50;;;;;;5006451;28;20030;-50
2022/06/16 08:06:33;;;;;;;2.60;0.80;;;20.40;95.00;;;;;;5009144;28;20033;-54
2022/06/16 08:08:59;;;;;;;1.35;0.50;;;20.60;94.70;;;;;;5005089;28;20092;-51
2022/06/16 08:14:10;;;;;;;3.72;0.80;;;20.50;91.60;;;;;;5004054;28;20035;-53
2022/06/16 08:16:36;;;;;;;0.95;0.75;;;20.00;91.90;;;;;;5000175;28;20034;-49
2022/06/16 08:19:02;;;;;;;1.98;0.68;;;19.80;92.10;;;;;;5009536;28;20026;-50
2022/06/16 08:21:28;;;;;;;0.60;0.55;;;19.50;93.20;;;;;;5004035;28;20432;-49
2022/06/16 08:23:54;;;;;;;2.28;0.80;;;19.60;92.90;;;;;;5008576;28;20057;-52
2022/06/16 08:26:20;;;;;;;1.55;0.80;;;19.50;94.00;;;;;;5009664;28;20057;-51
2022/06/16 08:28:47;;;;;;;3.80;1.15;;;19.70;94.40;;;;;;5009555;28;20103;-53
2022/06/16 08:31:13;;;;;;;1.30;0.77;;;20.10;93.90;;;;;;5004956;28;20022;-53
2022/06/16 08:33:39;;;;;;;2.00;0.95;;;20.10;93.00;;;;;;5009489;28;20061;-51
2022/06/16 08:36:05;;;;;;;1.38;1.00;;;20.20;95.00;;;;;;4998142;28;20072;-49
2022/06/16 08:38:31;;;;;;;2.88;0.60;;;20.40;93.00;;;;;;5009357;28;20049;-50
2022/06/16 08:41:15;;;;;;;2.33;1.15;;;20.60;94.60;;;;;;5003443;28;20026;-53
2022/06/16 08:43:55;;;;;;;1.35;0.70;;;21.00;92.60;;;;;;5000277;28;20065;-53
2022/06/16 08:46:23;;;;;;;3.80;0.82;;;20.80;92.70;;;;;;4996628;28;20026;-52
2022/06/16 08:49:27;;;;;;;1.23;0.68;;;20.90;92.40;;;;;;5008666;28;20034;-49
2022/06/16 08:52:01;;;;;;;3.30;0.65;;;21.10;92.20;;;;;;5004832;28;20072;-52
2022/06/16 08:54:36;;;;;;;1.50;0.95;;;21.00;90.80;;;;;;5007494;28;20109;-51
2022/06/16 08:57:28;;;;;;;0.63;0.63;;;20.80;90.50;;;;;;5004240;28;20145;-52
2022/06/16 09:00:02;;;;;;;2.38;1.02;;;20.80;92.30;;;;;;5006420;28;20369;-52
2022/06/16 09:02:51;;;;;;;2.13;0.77;;;20.70;91.00;;;;;;5008973;28;20069;-53
2022/06/16 09:05:42;;;;;;;0.77;0.60;;;20.70;91.40;;;;;;5002591;28;20022;-52
2022/06/16 09:08:08;;;;;;;1.13;0.55;;;20.80;91.10;;;;;;5006632;28;20033;-54
2022/06/16 09:10:42;;;;;;;1.92;0.68;;;20.90;90.20;;;;;;5005996;28;20030;-48
2022/06/16 09:13:17;;;;;;;3.80;0.98;;;20.70;91.30;;;;;;5004883;28;20125;-53
2022/06/16 09:16:15;;;;;;;1.33;0.77;;;20.80;89.60;;;;;;5004931;28;20480;-53
2022/06/16 09:18:47;;;;;;;2.83;0.93;;;20.80;90.30;;;;;;5000409;28;20034;-50
2022/06/16 09:21:30;;;;;;;1.73;0.73;;;21.10;89.20;;;;;;5007823;28;20022;-50
2022/06/16 09:24:06;;;;;;;3.17;1.00;;;21.30;89.30;;;;;;5012077;28;20037;-51
2022/06/16 09:26:54;;;;;;;2.50;0.95;;;21.20;89.70;;;;;;5002087;28;20026;-54
2022/06/16 09:29:46;;;;;;;0.80;0.80;;;21.30;88.00;;;;;;4999718;28;20087;-49
2022/06/16 09:32:34;;;;;;;1.27;0.80;;;21.50;91.00;;;;;;5011694;28;20119;-48
2022/06/16 09:35:16;;;;;;;2.15;0.93;;;21.50;88.50;;;;;;5008445;28;20472;-50
2022/06/16 09:38:07;;;;;;;1.85;0.80;;;21.60;88.10;;;;;;5011165;28;20081;-55
2022/06/16 09:40:37;;;;;;;2.72;1.20;;;21.40;85.90;;;;;;5001647;28;20018;-51
2022/06/16 09:43:15;;;;;;;2.10;1.00;;;21.40;90.50;;;;;;5009407;28;20025;-50
2022/06/16 09:45:53;;;;;;;1.33;0.80;;;21.50;88.60;;;;;;5011219;28;20084;-52
2022/06/16 09:48:36;;;;;;;7.63;2.30;;;21.50;90.10;;;;;;5006496;28;20580;-51
2022/06/16 09:51:08;;;;;;;2.38;0.90;;;21.50;86.00;;;;;;5010497;28;20038;-50
2022/06/16 09:53:48;;;;;;;6.38;1.52;;;21.50;89.20;;;;;;5009013;28;20458;-47
2022/06/16 09:56:28;;;;;;;2.92;1.10;;;21.30;89.10;;;;;;4994372;28;20053;-49
2022/06/16 09:59:14;;;;;;;2.88;0.73;;;21.10;90.80;;;;;;5004601;28;20443;-50
2022/06/16 10:01:47;;;;;;;2.55;0.98;;;21.40;90.80;;;;;;5012083;28;20565;-51
2022/06/16 10:04:13;;;;;;;2.92;0.80;;;21.40;89.00;;;;;;5008798;28;20025;-49
2022/06/16 10:06:48;;;;;;;1.20;1.10;;;21.30;88.20;;;;;;5002595;28;20022;-52
2022/06/16 10:09:26;;;;;;;2.07;1.03;;;21.30;90.50;;;;;;5008204;28;20010;-51
2022/06/16 10:12:02;;;;;;;3.63;0.80;;;21.20;88.50;;;;;;5009845;28;20261;-52
2022/06/16 10:16:59;;;;;;;2.38;1.17;;;21.40;90.00;;;;;;5018746;28;19933;-46
2022/06/16 10:19:29;;;;;;;1.98;0.73;;;21.50;90.30;;;;;;5021479;28;20029;-46
2022/06/16 10:21:56;;;;;;;2.03;1.20;;;21.60;87.60;;;;;;5022302;28;20443;-45
2022/06/16 10:24:27;;;;;;;3.40;0.90;;;21.70;87.40;;;;;;5000817;28;20029;-44
2022/06/16 10:26:57;;;;;;;4.82;1.50;;;21.60;90.10;;;;;;5000833;28;20030;-45
2022/06/16 10:29:29;;;;;;;1.90;1.10;;;21.50;88.50;;;;;;5004752;28;20703;-45
2022/06/16 10:31:57;;;;;;;1.90;0.70;;;21.40;88.90;;;;;;5000359;28;20113;-45
2022/06/16 10:34:29;;;;;;;2.30;1.13;;;21.60;90.40;;;;;;5005408;28;20025;-50
2022/06/16 10:37:04;;;;;;;3.72;1.25;;;21.60;89.00;;;;;;5001031;28;20022;-45
2022/06/16 10:39:55;;;;;;;2.67;0.90;;;21.70;88.60;;;;;;5005509;28;20026;-46
2022/06/16 10:42:32;;;;;;;1.13;0.77;;;21.40;86.70;;;;;;4993495;28;20033;-47
2022/06/16 10:45:05;;;;;;;3.17;0.88;;;21.30;87.60;;;;;;5000814;28;20390;-46
2022/06/16 10:47:40;;;;;;;2.47;1.42;;;21.30;88.00;;;;;;5003388;28;20030;-47
2022/06/16 10:50:14;;;;;;;3.60;1.13;;;21.00;89.00;;;;;;5001455;28;20054;-46
2022/06/16 10:52:46;;;;;;;2.20;1.02;;;20.90;90.20;;;;;;5002873;28;20084;-45
2022/06/16 10:55:12;;;;;;;2.83;1.05;;;20.90;87.00;;;;;;5002282;28;20029;-45
2022/06/16 10:57:47;;;;;;;2.80;1.10;;;21.10;87.80;;;;;;5003165;28;20034;-45
2022/06/16 11:00:22;;;;;;;1.52;0.93;;;21.10;84.40;;;;;;4999826;28;20077;-45
2022/06/16 11:03:17;;;;;;;3.83;0.95;;;21.00;88.50;;;;;;5005004;28;20034;-50
2022/06/16 11:05:57;;;;;;;3.75;1.42;;;21.00;88.70;;;;;;4993267;28;20500;-45
2022/06/16 11:08:31;;;;;;;2.28;1.00;;;20.70;89.60;;;;;;4994242;28;20077;-48
2022/06/16 11:10:59;;;;;;;2.08;0.80;;;20.80;90.00;;;;;;5000540;28;20520;-44
2022/06/16 11:13:46;;;;;;;0.63;0.63;;;21.00;89.20;;;;;;5005625;28;20030;-45
2022/06/16 11:16:44;;;;;;;2.95;0.80;;;21.00;88.50;;;;;;5001572;28;20487;-46
2022/06/16 11:19:11;;;;;;;1.98;1.05;;;20.60;85.20;;;;;;4987476;28;20042;-44
2022/06/16 11:21:43;;;;;;;2.58;0.93;;;20.50;88.30;;;;;;5002204;28;20105;-47
2022/06/16 11:24:23;;;;;;;3.25;0.80;;;20.70;87.60;;;;;;5000584;28;20508;-45
2022/06/16 11:27:00;;;;;;;3.50;1.08;;;21.00;84.50;;;;;;4999697;28;20114;-47
2022/06/16 11:29:33;;;;;;;4.28;1.05;;;21.30;86.80;;;;;;5003254;28;20084;-49
2022/06/16 11:32:17;;;;;;;2.35;0.70;;;21.50;84.60;;;;;;5000227;28;20076;-49
2022/06/16 11:34:44;;;;;;;2.85;1.08;;;21.40;85.10;;;;;;5002329;28;20052;-45
2022/06/16 11:37:10;;;;;;;16.55;3.45;;;21.30;85.50;;;;;;5002220;28;20472;-46
2022/06/16 11:40:04;;;;;;;2.80;1.08;;;21.30;86.60;;;;;;5003259;28;20030;-46
2022/06/16 11:42:47;;;;;;;4.65;1.27;;;21.60;84.40;;;;;;4992111;28;20034;-48
2022/06/16 11:45:13;;;;;;;3.60;1.05;;;21.70;86.70;;;;;;4999967;28;20026;-45
2022/06/16 11:47:57;;;;;;;5.10;1.20;;;21.80;84.60;;;;;;5002497;28;20083;-46
2022/06/16 11:50:35;;;;;;;3.05;1.08;;;21.80;85.00;;;;;;4995300;28;20125;-47
2022/06/16 11:53:31;;;;;;;3.50;1.20;;;21.80;86.50;;;;;;5000205;28;20037;-46
2022/06/16 11:56:15;;;;;;;52.63;6.17;;;21.80;83.60;;;;;;5004344;28;20061;-50
2022/06/16 11:59:10;;;;;;;6.28;1.08;;;21.70;84.40;;;;;;4998821;28;20373;-48
2022/06/16 12:01:46;;;;;;;3.65;1.00;;;21.50;86.90;;;;;;4996418;28;20026;-51
2022/06/16 12:04:36;;;;;;;6.38;1.40;;;21.20;84.80;;;;;;5002155;28;20131;-46
2022/06/16 12:07:21;;;;;;;1.77;0.70;;;21.10;84.90;;;;;;5000862;28;20050;-50
2022/06/16 12:09:55;;;;;;;1.85;0.90;;;21.30;82.50;;;;;;5002476;28;20496;-50
2022/06/16 12:12:54;;;;;;;11.75;1.50;;;21.30;84.20;;;;;;5001267;28;20026;-50
2022/06/16 12:15:35;;;;;;;2.00;1.10;;;21.30;85.60;;;;;;4993858;28;20038;-53
2022/06/16 12:18:19;;;;;;;2.83;1.35;;;21.20;87.00;;;;;;4999908;28;20389;-47
2022/06/16 12:21:01;;;;;;;4.18;1.20;;;21.20;87.30;;;;;;4999757;28;20023;-48
2022/06/16 12:23:41;;;;;;;2.72;0.93;;;21.30;87.40;;;;;;4990056;28;20026;-52
2022/06/16 12:26:13;;;;;;;3.90;1.00;;;21.40;88.70;;;;;;4999612;28;20484;-46
2022/06/16 12:28:56;;;;;;;2.20;0.70;;;21.40;85.70;;;;;;5002488;28;20026;-47
2022/06/16 12:31:59;;;;;;;4.25;1.30;;;21.70;86.30;;;;;;4994285;28;20494;-50
2022/06/16 12:34:39;;;;;;;7.45;1.10;;;21.90;86.70;;;;;;5001755;28;20030;-50
2022/06/16 12:37:16;;;;;;;2.08;0.65;;;21.80;83.40;;;;;;4994274;28;20026;-46
2022/06/16 12:39:57;;;;;;;3.15;0.73;;;21.70;84.10;;;;;;5000920;28;20026;-48
2022/06/16 12:42:27;;;;;;;0.90;0.60;;;21.50;83.50;;;;;;4995692;28;20444;-46
2022/06/16 12:45:02;;;;;;;1.65;0.90;;;21.30;83.60;;;;;;5004149;28;20029;-48
2022/06/16 12:47:53;;;;;;;1.75;0.73;;;21.20;85.80;;;;;;4997924;28;20022;-46
2022/06/16 12:50:38;;;;;;;2.60;0.60;;;21.40;84.80;;;;;;4973949;28;20050;-46
2022/06/16 12:53:13;;;;;;;1.50;0.88;;;21.40;83.30;;;;;;4998337;28;20022;-46
2022/06/16 12:56:03;;;;;;;2.38;1.00;;;21.40;86.50;;;;;;5004245;28;20489;-49
2022/06/16 12:58:33;;;;;;;1.15;0.80;;;21.70;89.00;;;;;;4996741;28;20030;-46
2022/06/16 13:01:04;;;;;;;6.10;1.05;;;22.00;85.60;;;;;;5003871;28;20026;-46
2022/06/16 13:03:53;;;;;;;4.40;1.38;;;22.10;83.20;;;;;;5005572;28;20029;-50
2022/06/16 13:06:21;;;;;;;6.15;1.48;;;22.20;83.00;;;;;;5006763;28;20318;-49
2022/06/16 13:08:51;;;;;;;5.43;0.93;;;22.20;83.10;;;;;;5005560;28;20551;-47
2022/06/16 13:11:21;;;;;;;4.07;0.70;;;22.00;81.90;;;;;;4998888;28;20041;-48
2022/06/16 13:13:53;;;;;;;1.40;0.90;;;21.80;84.70;;;;;;5007820;28;20026;-47
2022/06/16 13:16:23;;;;;;;0.70;0.55;;;21.80;82.40;;;;;;4997810;28;20519;-48
2022/06/16 13:19:17;;;;;;;2.40;0.90;;;21.70;85.30;;;;;;5008975;28;20030;-46
2022/06/16 13:21:54;;;;;;;2.15;0.80;;;21.70;84.80;;;;;;4978969;28;20033;-46
2022/06/16 13:24:33;;;;;;;1.83;0.90;;;21.70;85.20;;;;;;4994444;28;20415;-47
2022/06/16 13:27:07;;;;;;;2.30;0.80;;;21.60;83.00;;;;;;5002760;28;20085;-47
2022/06/16 13:29:55;;;;;;;1.48;0.73;;;21.50;83.30;;;;;;5005025;28;20034;-45
2022/06/16 13:32:42;;;;;;;2.75;0.70;;;21.40;86.30;;;;;;4986741;28;20022;-45
2022/06/16 13:35:13;;;;;;;2.33;0.70;;;21.40;85.80;;;;;;5003689;28;20555;-46
2022/06/16 13:37:42;;;;;;;0.45;0.45;;;21.40;84.90;;;;;;5004534;28;20033;-46